sensor_id;sensor_type;location;lat;lon;timestamp;P1;durP1;ratioP1;P2;durP2;ratioP2
19741;SDS011;10028;48.822;11.854;2023-04-26T00:01:00;2.70;;;2.60;;
19741;SDS011;10028;48.822;11.854;2023-04-26T00:03:30;2.30;;;2.20;;
19741;SDS011;10028;48.822;11.854;2023-04-26T00:05:58;3.13;;;3.03;;
19741;SDS011;10028;48.822;11.854;2023-04-26T00:08:30;2.50;;;2.40;;
19741;SDS011;10028;48.822;11.854;2023-04-26T00:10:58;2.77;;;2.67;;
19741;SDS011;10028;48.822;11.854;2023-04-26T00:13:25;2.50;;;2.40;;
19741;SDS011;10028;48.822;11.854;2023-04-26T00:15:52;3.80;;;3.50;;
19741;SDS011;10028;48.822;11.854;2023-04-26T00:18:19;2.50;;;2.40;;
19741;SDS011;10028;48.822;11.854;2023-04-26T00:20:47;2.40;;;2.30;;
19741;SDS011;10028;48.822;11.854;2023-04-26T00:23:14;2.80;;;2.70;;
19741;SDS011;10028;48.822;11.854;2023-04-26T00:25:41;2.37;;;2.27;;
19741;SDS011;10028;48.822;11.854;2023-04-26T00:28:08;2.50;;;2.40;;
19741;SDS011;10028;48.822;11.854;2023-04-26T00:30:35;2.90;;;2.80;;
19741;SDS011;10028;48.822;11.854;2023-04-26T00:33:06;2.27;;;2.20;;
19741;SDS011;10028;48.822;11.854;2023-04-26T00:35:34;2.63;;;2.53;;
19741;SDS011;10028;48.822;11.854;2023-04-26T00:38:01;2.50;;;2.40;;
19741;SDS011;10028;48.822;11.854;2023-04-26T00:40:29;2.63;;;2.53;;
19741;SDS011;10028;48.822;11.854;2023-04-26T00:42:57;3.33;;;3.17;;
19741;SDS011;10028;48.822;11.854;2023-04-26T00:45:24;2.20;;;2.10;;
19741;SDS011;10028;48.822;11.854;2023-04-26T00:47:51;2.57;;;2.47;;
19741;SDS011;10028;48.822;11.854;2023-04-26T00:50:19;3.10;;;3.00;;
19741;SDS011;10028;48.822;11.854;2023-04-26T00:52:46;2.70;;;2.60;;
19741;SDS011;10028;48.822;11.854;2023-04-26T00:55:14;2.63;;;2.53;;
19741;SDS011;10028;48.822;11.854;2023-04-26T00:57:41;2.70;;;2.60;;
19741;SDS011;10028;48.822;11.854;2023-04-26T01:00:11;2.70;;;2.60;;
19741;SDS011;10028;48.822;11.854;2023-04-26T01:02:38;3.10;;;3.00;;
19741;SDS011;10028;48.822;11.854;2023-04-26T01:05:07;3.20;;;3.10;;
19741;SDS011;10028;48.822;11.854;2023-04-26T01:07:37;2.60;;;2.50;;
19741;SDS011;10028;48.822;11.854;2023-04-26T01:10:04;3.07;;;2.87;;
19741;SDS011;10028;48.822;11.854;2023-04-26T01:12:32;2.60;;;2.50;;
19741;SDS011;10028;48.822;11.854;2023-04-26T01:14:59;2.97;;;2.87;;
19741;SDS011;10028;48.822;11.854;2023-04-26T01:17:26;2.73;;;2.63;;
19741;SDS011;10028;48.822;11.854;2023-04-26T01:19:54;2.90;;;2.80;;
19741;SDS011;10028;48.822;11.854;2023-04-26T01:22:21;2.40;;;2.30;;
19741;SDS011;10028;48.822;11.854;2023-04-26T01:24:49;3.40;;;3.30;;
19741;SDS011;10028;48.822;11.854;2023-04-26T01:27:16;2.60;;;2.50;;
19741;SDS011;10028;48.822;11.854;2023-04-26T01:29:44;2.70;;;2.60;;
19741;SDS011;10028;48.822;11.854;2023-04-26T01:32:11;3.37;;;3.27;;
19741;SDS011;10028;48.822;11.854;2023-04-26T01:34:38;3.27;;;3.17;;
19741;SDS011;10028;48.822;11.854;2023-04-26T01:37:06;2.50;;;2.40;;
19741;SDS011;10028;48.822;11.854;2023-04-26T01:39:33;2.80;;;2.70;;
19741;SDS011;10028;48.822;11.854;2023-04-26T01:42:02;2.90;;;2.80;;
19741;SDS011;10028;48.822;11.854;2023-04-26T01:44:30;2.80;;;2.70;;
19741;SDS011;10028;48.822;11.854;2023-04-26T01:46:57;2.60;;;2.50;;
19741;SDS011;10028;48.822;11.854;2023-04-26T01:49:24;3.20;;;3.10;;
19741;SDS011;10028;48.822;11.854;2023-04-26T01:51:51;2.60;;;2.50;;
19741;SDS011;10028;48.822;11.854;2023-04-26T01:54:19;3.00;;;2.90;;
19741;SDS011;10028;48.822;11.854;2023-04-26T01:56:46;2.80;;;2.70;;
19741;SDS011;10028;48.822;11.854;2023-04-26T01:59:13;2.80;;;2.70;;
19741;SDS011;10028;48.822;11.854;2023-04-26T02:01:41;2.87;;;2.77;;
19741;SDS011;10028;48.822;11.854;2023-04-26T02:04:11;3.43;;;3.17;;
19741;SDS011;10028;48.822;11.854;2023-04-26T02:06:38;2.90;;;2.80;;
19741;SDS011;10028;48.822;11.854;2023-04-26T02:09:07;2.60;;;2.50;;
19741;SDS011;10028;48.822;11.854;2023-04-26T02:11:34;3.07;;;2.97;;
19741;SDS011;10028;48.822;11.854;2023-04-26T02:14:02;2.60;;;2.50;;
19741;SDS011;10028;48.822;11.854;2023-04-26T02:16:29;2.70;;;2.60;;
19741;SDS011;10028;48.822;11.854;2023-04-26T02:18:58;3.03;;;2.93;;
19741;SDS011;10028;48.822;11.854;2023-04-26T02:21:25;2.90;;;2.80;;
19741;SDS011;10028;48.822;11.854;2023-04-26T02:23:53;2.90;;;2.80;;
19741;SDS011;10028;48.822;11.854;2023-04-26T02:26:20;2.50;;;2.40;;
19741;SDS011;10028;48.822;11.854;2023-04-26T02:28:47;2.90;;;2.80;;
19741;SDS011;10028;48.822;11.854;2023-04-26T02:31:15;2.90;;;2.80;;
19741;SDS011;10028;48.822;11.854;2023-04-26T02:33:42;2.70;;;2.60;;
19741;SDS011;10028;48.822;11.854;2023-04-26T02:36:09;2.93;;;2.83;;
19741;SDS011;10028;48.822;11.854;2023-04-26T02:38:36;2.87;;;2.77;;
19741;SDS011;10028;48.822;11.854;2023-04-26T02:41:04;2.70;;;2.60;;
19741;SDS011;10028;48.822;11.854;2023-04-26T02:43:31;3.00;;;2.90;;
19741;SDS011;10028;48.822;11.854;2023-04-26T02:45:58;2.80;;;2.70;;
19741;SDS011;10028;48.822;11.854;2023-04-26T02:48:26;3.30;;;3.20;;
19741;SDS011;10028;48.822;11.854;2023-04-26T02:50:54;3.07;;;2.97;;
19741;SDS011;10028;48.822;11.854;2023-04-26T02:53:22;2.80;;;2.70;;
19741;SDS011;10028;48.822;11.854;2023-04-26T02:55:49;2.90;;;2.80;;
19741;SDS011;10028;48.822;11.854;2023-04-26T02:58:16;2.80;;;2.70;;
19741;SDS011;10028;48.822;11.854;2023-04-26T03:00:44;2.60;;;2.50;;
19741;SDS011;10028;48.822;11.854;2023-04-26T03:03:13;2.70;;;2.60;;
19741;SDS011;10028;48.822;11.854;2023-04-26T03:05:41;3.20;;;3.10;;
19741;SDS011;10028;48.822;11.854;2023-04-26T03:08:08;2.93;;;2.83;;
19741;SDS011;10028;48.822;11.854;2023-04-26T03:10:35;3.40;;;3.30;;
19741;SDS011;10028;48.822;11.854;2023-04-26T03:13:05;2.80;;;2.70;;
19741;SDS011;10028;48.822;11.854;2023-04-26T03:15:32;3.07;;;2.97;;
19741;SDS011;10028;48.822;11.854;2023-04-26T03:17:59;3.07;;;2.97;;
19741;SDS011;10028;48.822;11.854;2023-04-26T03:20:27;3.03;;;2.93;;
19741;SDS011;10028;48.822;11.854;2023-04-26T03:22:54;3.20;;;3.10;;
19741;SDS011;10028;48.822;11.854;2023-04-26T03:25:21;3.13;;;3.03;;
19741;SDS011;10028;48.822;11.854;2023-04-26T03:27:48;2.90;;;2.80;;
19741;SDS011;10028;48.822;11.854;2023-04-26T03:30:16;2.90;;;2.80;;
19741;SDS011;10028;48.822;11.854;2023-04-26T03:32:43;3.43;;;3.33;;
19741;SDS011;10028;48.822;11.854;2023-04-26T03:35:10;3.20;;;3.10;;
19741;SDS011;10028;48.822;11.854;2023-04-26T03:37:37;3.07;;;2.97;;
19741;SDS011;10028;48.822;11.854;2023-04-26T03:40:06;3.00;;;2.90;;
19741;SDS011;10028;48.822;11.854;2023-04-26T03:42:34;2.97;;;2.87;;
19741;SDS011;10028;48.822;11.854;2023-04-26T03:45:02;3.37;;;3.27;;
19741;SDS011;10028;48.822;11.854;2023-04-26T03:47:29;3.20;;;3.10;;
19741;SDS011;10028;48.822;11.854;2023-04-26T03:49:57;3.07;;;2.97;;
19741;SDS011;10028;48.822;11.854;2023-04-26T03:52:24;3.10;;;3.00;;
19741;SDS011;10028;48.822;11.854;2023-04-26T03:54:51;3.47;;;3.37;;
19741;SDS011;10028;48.822;11.854;2023-04-26T03:57:18;3.10;;;3.00;;
19741;SDS011;10028;48.822;11.854;2023-04-26T03:59:46;3.73;;;3.63;;
19741;SDS011;10028;48.822;11.854;2023-04-26T04:02:13;2.80;;;2.70;;
19741;SDS011;10028;48.822;11.854;2023-04-26T04:04:40;3.40;;;3.30;;
19741;SDS011;10028;48.822;11.854;2023-04-26T04:07:08;3.37;;;3.27;;
19741;SDS011;10028;48.822;11.854;2023-04-26T04:09:35;3.53;;;3.43;;
19741;SDS011;10028;48.822;11.854;2023-04-26T04:12:02;3.23;;;3.13;;
19741;SDS011;10028;48.822;11.854;2023-04-26T04:14:30;3.00;;;2.90;;
19741;SDS011;10028;48.822;11.854;2023-04-26T04:16:57;3.37;;;3.27;;
19741;SDS011;10028;48.822;11.854;2023-04-26T04:19:25;3.60;;;3.50;;
19741;SDS011;10028;48.822;11.854;2023-04-26T04:21:52;3.07;;;2.97;;
19741;SDS011;10028;48.822;11.854;2023-04-26T04:24:19;3.30;;;3.20;;
19741;SDS011;10028;48.822;11.854;2023-04-26T04:26:46;3.10;;;3.00;;
19741;SDS011;10028;48.822;11.854;2023-04-26T04:29:13;3.23;;;3.13;;
19741;SDS011;10028;48.822;11.854;2023-04-26T04:31:41;3.43;;;3.33;;
19741;SDS011;10028;48.822;11.854;2023-04-26T04:34:08;3.20;;;3.10;;
19741;SDS011;10028;48.822;11.854;2023-04-26T04:36:35;4.03;;;3.93;;
19741;SDS011;10028;48.822;11.854;2023-04-26T04:39:04;5.37;;;5.17;;
19741;SDS011;10028;48.822;11.854;2023-04-26T04:41:37;3.80;;;3.70;;
19741;SDS011;10028;48.822;11.854;2023-04-26T04:44:05;3.70;;;3.60;;
19741;SDS011;10028;48.822;11.854;2023-04-26T04:46:33;3.53;;;3.43;;
19741;SDS011;10028;48.822;11.854;2023-04-26T04:49:00;3.40;;;3.30;;
19741;SDS011;10028;48.822;11.854;2023-04-26T04:51:27;3.07;;;2.97;;
19741;SDS011;10028;48.822;11.854;2023-04-26T04:53:56;3.00;;;2.90;;
19741;SDS011;10028;48.822;11.854;2023-04-26T04:56:23;3.53;;;3.43;;
19741;SDS011;10028;48.822;11.854;2023-04-26T04:58:51;3.40;;;3.30;;
19741;SDS011;10028;48.822;11.854;2023-04-26T05:01:19;3.20;;;3.10;;
19741;SDS011;10028;48.822;11.854;2023-04-26T05:03:47;3.40;;;3.30;;
19741;SDS011;10028;48.822;11.854;2023-04-26T05:06:14;3.80;;;3.70;;
19741;SDS011;10028;48.822;11.854;2023-04-26T05:08:41;3.50;;;3.40;;
19741;SDS011;10028;48.822;11.854;2023-04-26T05:11:08;3.50;;;3.40;;
19741;SDS011;10028;48.822;11.854;2023-04-26T05:13:36;4.20;;;3.90;;
19741;SDS011;10028;48.822;11.854;2023-04-26T05:16:03;3.53;;;3.43;;
19741;SDS011;10028;48.822;11.854;2023-04-26T05:18:30;3.00;;;2.90;;
19741;SDS011;10028;48.822;11.854;2023-04-26T05:20:58;3.23;;;3.13;;
19741;SDS011;10028;48.822;11.854;2023-04-26T05:23:25;3.70;;;3.60;;
19741;SDS011;10028;48.822;11.854;2023-04-26T05:25:52;3.40;;;3.30;;
19741;SDS011;10028;48.822;11.854;2023-04-26T05:28:20;3.40;;;3.30;;
19741;SDS011;10028;48.822;11.854;2023-04-26T05:30:47;3.07;;;2.97;;
19741;SDS011;10028;48.822;11.854;2023-04-26T05:33:15;3.40;;;3.30;;
19741;SDS011;10028;48.822;11.854;2023-04-26T05:35:42;2.80;;;2.70;;
19741;SDS011;10028;48.822;11.854;2023-04-26T05:38:09;3.00;;;2.90;;
19741;SDS011;10028;48.822;11.854;2023-04-26T05:40:37;3.43;;;3.33;;
19741;SDS011;10028;48.822;11.854;2023-04-26T05:43:04;2.80;;;2.70;;
19741;SDS011;10028;48.822;11.854;2023-04-26T05:45:31;3.40;;;3.30;;
19741;SDS011;10028;48.822;11.854;2023-04-26T05:47:58;3.00;;;2.90;;
19741;SDS011;10028;48.822;11.854;2023-04-26T05:50:26;3.40;;;3.30;;
19741;SDS011;10028;48.822;11.854;2023-04-26T05:52:53;3.60;;;3.50;;
19741;SDS011;10028;48.822;11.854;2023-04-26T05:55:21;3.03;;;2.93;;
19741;SDS011;10028;48.822;11.854;2023-04-26T05:57:48;3.07;;;2.97;;
19741;SDS011;10028;48.822;11.854;2023-04-26T06:00:16;2.88;;;2.78;;
19741;SDS011;10028;48.822;11.854;2023-04-26T06:02:45;2.80;;;2.70;;
19741;SDS011;10028;48.822;11.854;2023-04-26T06:05:12;2.43;;;2.33;;
19741;SDS011;10028;48.822;11.854;2023-04-26T06:07:40;3.03;;;2.93;;
19741;SDS011;10028;48.822;11.854;2023-04-26T06:10:07;2.83;;;2.72;;
19741;SDS011;10028;48.822;11.854;2023-04-26T06:12:35;3.33;;;3.23;;
19741;SDS011;10028;48.822;11.854;2023-04-26T06:15:03;3.20;;;3.10;;
19741;SDS011;10028;48.822;11.854;2023-04-26T06:17:30;2.90;;;2.80;;
19741;SDS011;10028;48.822;11.854;2023-04-26T06:19:57;2.73;;;2.63;;
19741;SDS011;10028;48.822;11.854;2023-04-26T06:22:24;3.53;;;3.43;;
19741;SDS011;10028;48.822;11.854;2023-04-26T06:24:52;3.20;;;3.10;;
19741;SDS011;10028;48.822;11.854;2023-04-26T06:27:19;2.80;;;2.70;;
19741;SDS011;10028;48.822;11.854;2023-04-26T06:29:46;3.00;;;2.90;;
19741;SDS011;10028;48.822;11.854;2023-04-26T06:32:14;3.00;;;2.90;;
19741;SDS011;10028;48.822;11.854;2023-04-26T06:34:41;2.90;;;2.80;;
19741;SDS011;10028;48.822;11.854;2023-04-26T06:37:10;2.80;;;2.70;;
19741;SDS011;10028;48.822;11.854;2023-04-26T06:39:37;2.80;;;2.70;;
19741;SDS011;10028;48.822;11.854;2023-04-26T06:42:05;3.10;;;3.00;;
19741;SDS011;10028;48.822;11.854;2023-04-26T06:44:32;2.80;;;2.70;;
19741;SDS011;10028;48.822;11.854;2023-04-26T06:46:59;2.80;;;2.70;;
19741;SDS011;10028;48.822;11.854;2023-04-26T06:49:27;3.27;;;3.17;;
19741;SDS011;10028;48.822;11.854;2023-04-26T06:51:54;2.70;;;2.60;;
19741;SDS011;10028;48.822;11.854;2023-04-26T06:54:26;2.80;;;2.70;;
19741;SDS011;10028;48.822;11.854;2023-04-26T06:56:54;3.00;;;2.90;;
19741;SDS011;10028;48.822;11.854;2023-04-26T06:59:21;2.90;;;2.80;;
19741;SDS011;10028;48.822;11.854;2023-04-26T07:01:48;3.33;;;3.23;;
19741;SDS011;10028;48.822;11.854;2023-04-26T07:04:16;2.50;;;2.40;;
19741;SDS011;10028;48.822;11.854;2023-04-26T07:06:44;2.60;;;2.50;;
19741;SDS011;10028;48.822;11.854;2023-04-26T07:09:12;2.87;;;2.77;;
19741;SDS011;10028;48.822;11.854;2023-04-26T07:11:39;2.90;;;2.80;;
19741;SDS011;10028;48.822;11.854;2023-04-26T07:14:06;2.60;;;2.50;;
19741;SDS011;10028;48.822;11.854;2023-04-26T07:16:33;2.50;;;2.40;;
19741;SDS011;10028;48.822;11.854;2023-04-26T07:19:01;2.50;;;2.40;;
19741;SDS011;10028;48.822;11.854;2023-04-26T07:21:28;2.60;;;2.50;;
19741;SDS011;10028;48.822;11.854;2023-04-26T07:23:55;3.00;;;2.90;;
19741;SDS011;10028;48.822;11.854;2023-04-26T07:26:23;2.70;;;2.60;;
19741;SDS011;10028;48.822;11.854;2023-04-26T07:28:54;2.60;;;2.50;;
19741;SDS011;10028;48.822;11.854;2023-04-26T07:31:22;2.77;;;2.67;;
19741;SDS011;10028;48.822;11.854;2023-04-26T07:33:49;2.60;;;2.50;;
19741;SDS011;10028;48.822;11.854;2023-04-26T07:36:16;2.77;;;2.67;;
19741;SDS011;10028;48.822;11.854;2023-04-26T07:38:44;2.50;;;2.40;;
19741;SDS011;10028;48.822;11.854;2023-04-26T07:41:11;2.47;;;2.37;;
19741;SDS011;10028;48.822;11.854;2023-04-26T07:43:38;2.60;;;2.50;;
19741;SDS011;10028;48.822;11.854;2023-04-26T07:46:05;2.60;;;2.50;;
19741;SDS011;10028;48.822;11.854;2023-04-26T07:48:33;2.50;;;2.40;;
19741;SDS011;10028;48.822;11.854;2023-04-26T07:51:10;2.73;;;2.63;;
19741;SDS011;10028;48.822;11.854;2023-04-26T07:53:38;2.40;;;2.30;;
19741;SDS011;10028;48.822;11.854;2023-04-26T07:56:05;2.30;;;2.20;;
19741;SDS011;10028;48.822;11.854;2023-04-26T07:58:34;2.40;;;2.30;;
19741;SDS011;10028;48.822;11.854;2023-04-26T08:01:02;2.40;;;2.30;;
19741;SDS011;10028;48.822;11.854;2023-04-26T08:03:29;2.50;;;2.40;;
19741;SDS011;10028;48.822;11.854;2023-04-26T08:05:57;2.40;;;2.30;;
19741;SDS011;10028;48.822;11.854;2023-04-26T08:08:25;2.40;;;2.30;;
19741;SDS011;10028;48.822;11.854;2023-04-26T08:10:52;2.60;;;2.50;;
19741;SDS011;10028;48.822;11.854;2023-04-26T08:13:19;2.30;;;2.20;;
19741;SDS011;10028;48.822;11.854;2023-04-26T08:15:47;2.50;;;2.40;;
19741;SDS011;10028;48.822;11.854;2023-04-26T08:18:14;2.40;;;2.30;;
19741;SDS011;10028;48.822;11.854;2023-04-26T08:20:41;2.57;;;2.47;;
19741;SDS011;10028;48.822;11.854;2023-04-26T08:23:08;2.30;;;2.20;;
19741;SDS011;10028;48.822;11.854;2023-04-26T08:25:36;4.40;;;4.00;;
19741;SDS011;10028;48.822;11.854;2023-04-26T08:28:03;2.50;;;2.40;;
19741;SDS011;10028;48.822;11.854;2023-04-26T08:30:33;2.30;;;2.20;;
19741;SDS011;10028;48.822;11.854;2023-04-26T08:33:00;2.07;;;2.07;;
19741;SDS011;10028;48.822;11.854;2023-04-26T08:35:27;2.90;;;2.80;;
19741;SDS011;10028;48.822;11.854;2023-04-26T08:37:55;2.40;;;2.30;;
19741;SDS011;10028;48.822;11.854;2023-04-26T08:40:23;2.30;;;2.20;;
19741;SDS011;10028;48.822;11.854;2023-04-26T08:42:50;2.40;;;2.30;;
19741;SDS011;10028;48.822;11.854;2023-04-26T08:45:19;2.50;;;2.40;;
19741;SDS011;10028;48.822;11.854;2023-04-26T08:50:14;2.40;;;2.30;;
19741;SDS011;10028;48.822;11.854;2023-04-26T08:52:44;2.50;;;2.40;;
19741;SDS011;10028;48.822;11.854;2023-04-26T08:55:13;2.53;;;2.43;;
19741;SDS011;10028;48.822;11.854;2023-04-26T08:57:45;1.90;;;1.90;;
19741;SDS011;10028;48.822;11.854;2023-04-26T09:00:13;2.10;;;2.10;;
19741;SDS011;10028;48.822;11.854;2023-04-26T09:02:44;2.40;;;2.30;;
19741;SDS011;10028;48.822;11.854;2023-04-26T09:05:14;2.30;;;2.20;;
19741;SDS011;10028;48.822;11.854;2023-04-26T09:07:45;2.03;;;2.03;;
19741;SDS011;10028;48.822;11.854;2023-04-26T09:10:13;2.30;;;2.20;;
19741;SDS011;10028;48.822;11.854;2023-04-26T09:12:44;2.00;;;2.00;;
19741;SDS011;10028;48.822;11.854;2023-04-26T09:15:13;2.47;;;2.37;;
19741;SDS011;10028;48.822;11.854;2023-04-26T09:17:41;2.53;;;2.43;;
19741;SDS011;10028;48.822;11.854;2023-04-26T09:22:50;2.40;;;2.30;;
19741;SDS011;10028;48.822;11.854;2023-04-26T09:25:18;2.10;;;2.10;;
19741;SDS011;10028;48.822;11.854;2023-04-26T09:27:55;2.67;;;2.57;;
19741;SDS011;10028;48.822;11.854;2023-04-26T09:30:23;2.40;;;2.30;;
19741;SDS011;10028;48.822;11.854;2023-04-26T09:40:41;2.10;;;2.10;;
19741;SDS011;10028;48.822;11.854;2023-04-26T09:43:12;2.10;;;2.10;;
19741;SDS011;10028;48.822;11.854;2023-04-26T09:45:51;2.33;;;2.23;;
19741;SDS011;10028;48.822;11.854;2023-04-26T09:48:20;2.23;;;2.13;;
19741;SDS011;10028;48.822;11.854;2023-04-26T09:53:30;2.43;;;2.33;;
19741;SDS011;10028;48.822;11.854;2023-04-26T09:56:07;2.20;;;2.10;;
19741;SDS011;10028;48.822;11.854;2023-04-26T09:58:35;2.87;;;2.77;;
19741;SDS011;10028;48.822;11.854;2023-04-26T10:01:23;2.10;;;2.10;;
19741;SDS011;10028;48.822;11.854;2023-04-26T10:03:52;2.30;;;2.20;;
19741;SDS011;10028;48.822;11.854;2023-04-26T10:06:19;2.20;;;2.20;;
19741;SDS011;10028;48.822;11.854;2023-04-26T10:08:47;1.90;;;1.90;;
19741;SDS011;10028;48.822;11.854;2023-04-26T10:11:14;2.10;;;2.10;;
19741;SDS011;10028;48.822;11.854;2023-04-26T10:13:41;2.33;;;2.23;;
19741;SDS011;10028;48.822;11.854;2023-04-26T10:16:09;2.40;;;2.30;;
19741;SDS011;10028;48.822;11.854;2023-04-26T10:18:37;2.30;;;2.20;;
19741;SDS011;10028;48.822;11.854;2023-04-26T10:21:15;2.00;;;2.00;;
19741;SDS011;10028;48.822;11.854;2023-04-26T10:23:47;2.10;;;2.10;;
19741;SDS011;10028;48.822;11.854;2023-04-26T10:29:20;2.50;;;2.40;;
19741;SDS011;10028;48.822;11.854;2023-04-26T10:34:28;3.40;;;3.20;;
19741;SDS011;10028;48.822;11.854;2023-04-26T10:37:09;4.10;;;3.90;;
19741;SDS011;10028;48.822;11.854;2023-04-26T10:39:40;1.93;;;1.93;;
19741;SDS011;10028;48.822;11.854;2023-04-26T10:42:18;2.20;;;2.20;;
19741;SDS011;10028;48.822;11.854;2023-04-26T10:44:53;2.00;;;2.00;;
19741;SDS011;10028;48.822;11.854;2023-04-26T10:50:07;1.90;;;1.90;;
19741;SDS011;10028;48.822;11.854;2023-04-26T10:52:37;2.00;;;2.00;;
19741;SDS011;10028;48.822;11.854;2023-04-26T10:55:42;2.27;;;2.20;;
19741;SDS011;10028;48.822;11.854;2023-04-26T10:58:31;2.10;;;2.10;;
19741;SDS011;10028;48.822;11.854;2023-04-26T11:03:32;1.80;;;1.80;;
19741;SDS011;10028;48.822;11.854;2023-04-26T11:06:04;1.90;;;1.90;;
19741;SDS011;10028;48.822;11.854;2023-04-26T11:08:40;1.87;;;1.87;;
19741;SDS011;10028;48.822;11.854;2023-04-26T11:11:11;2.00;;;2.00;;
19741;SDS011;10028;48.822;11.854;2023-04-26T11:13:41;2.00;;;2.00;;
19741;SDS011;10028;48.822;11.854;2023-04-26T11:16:10;2.10;;;2.10;;
19741;SDS011;10028;48.822;11.854;2023-04-26T11:18:38;2.00;;;2.00;;
19741;SDS011;10028;48.822;11.854;2023-04-26T11:21:09;2.40;;;2.30;;
19741;SDS011;10028;48.822;11.854;2023-04-26T11:23:38;1.80;;;1.80;;
19741;SDS011;10028;48.822;11.854;2023-04-26T11:26:06;1.90;;;1.90;;
19741;SDS011;10028;48.822;11.854;2023-04-26T11:28:35;2.60;;;2.50;;
19741;SDS011;10028;48.822;11.854;2023-04-26T11:31:03;2.00;;;2.00;;
19741;SDS011;10028;48.822;11.854;2023-04-26T11:33:31;1.80;;;1.80;;
19741;SDS011;10028;48.822;11.854;2023-04-26T11:36:01;1.80;;;1.80;;
19741;SDS011;10028;48.822;11.854;2023-04-26T11:38:29;1.93;;;1.93;;
19741;SDS011;10028;48.822;11.854;2023-04-26T11:40:57;1.83;;;1.83;;
19741;SDS011;10028;48.822;11.854;2023-04-26T11:43:43;1.83;;;1.83;;
19741;SDS011;10028;48.822;11.854;2023-04-26T11:46:10;2.10;;;2.10;;
19741;SDS011;10028;48.822;11.854;2023-04-26T11:48:38;2.55;;;2.45;;
19741;SDS011;10028;48.822;11.854;2023-04-26T11:51:06;2.10;;;2.10;;
19741;SDS011;10028;48.822;11.854;2023-04-26T11:53:37;1.90;;;1.90;;
19741;SDS011;10028;48.822;11.854;2023-04-26T11:56:12;1.80;;;1.80;;
19741;SDS011;10028;48.822;11.854;2023-04-26T11:58:46;1.83;;;1.83;;
19741;SDS011;10028;48.822;11.854;2023-04-26T12:03:49;1.87;;;1.87;;
19741;SDS011;10028;48.822;11.854;2023-04-26T12:06:18;1.70;;;1.70;;
19741;SDS011;10028;48.822;11.854;2023-04-26T12:08:49;1.73;;;1.73;;
19741;SDS011;10028;48.822;11.854;2023-04-26T12:11:17;2.00;;;2.00;;
19741;SDS011;10028;48.822;11.854;2023-04-26T12:13:45;1.80;;;1.80;;
19741;SDS011;10028;48.822;11.854;2023-04-26T12:16:13;1.70;;;1.70;;
19741;SDS011;10028;48.822;11.854;2023-04-26T12:18:52;1.80;;;1.80;;
19741;SDS011;10028;48.822;11.854;2023-04-26T12:21:19;1.80;;;1.80;;
19741;SDS011;10028;48.822;11.854;2023-04-26T12:23:47;1.63;;;1.63;;
19741;SDS011;10028;48.822;11.854;2023-04-26T12:26:14;1.60;;;1.60;;
19741;SDS011;10028;48.822;11.854;2023-04-26T12:28:41;1.60;;;1.60;;
19741;SDS011;10028;48.822;11.854;2023-04-26T12:31:09;1.70;;;1.70;;
19741;SDS011;10028;48.822;11.854;2023-04-26T12:33:36;1.90;;;1.90;;
19741;SDS011;10028;48.822;11.854;2023-04-26T12:36:10;1.63;;;1.63;;
19741;SDS011;10028;48.822;11.854;2023-04-26T12:38:38;1.60;;;1.60;;
19741;SDS011;10028;48.822;11.854;2023-04-26T12:41:05;1.60;;;1.60;;
19741;SDS011;10028;48.822;11.854;2023-04-26T12:43:33;1.73;;;1.73;;
19741;SDS011;10028;48.822;11.854;2023-04-26T12:46:00;1.60;;;1.60;;
19741;SDS011;10028;48.822;11.854;2023-04-26T12:48:27;2.20;;;2.20;;
19741;SDS011;10028;48.822;11.854;2023-04-26T12:50:54;1.70;;;1.70;;
19741;SDS011;10028;48.822;11.854;2023-04-26T12:53:22;1.60;;;1.60;;
19741;SDS011;10028;48.822;11.854;2023-04-26T12:55:49;2.90;;;2.80;;
19741;SDS011;10028;48.822;11.854;2023-04-26T12:58:16;1.93;;;1.93;;
19741;SDS011;10028;48.822;11.854;2023-04-26T13:00:44;1.73;;;1.73;;
19741;SDS011;10028;48.822;11.854;2023-04-26T13:03:11;1.93;;;1.93;;
19741;SDS011;10028;48.822;11.854;2023-04-26T13:05:40;2.40;;;2.30;;
19741;SDS011;10028;48.822;11.854;2023-04-26T13:08:07;1.80;;;1.80;;
19741;SDS011;10028;48.822;11.854;2023-04-26T13:10:35;1.70;;;1.70;;
19741;SDS011;10028;48.822;11.854;2023-04-26T13:13:02;1.70;;;1.70;;
19741;SDS011;10028;48.822;11.854;2023-04-26T13:15:29;1.80;;;1.80;;
19741;SDS011;10028;48.822;11.854;2023-04-26T13:17:56;2.57;;;2.47;;
19741;SDS011;10028;48.822;11.854;2023-04-26T13:20:24;1.83;;;1.83;;
19741;SDS011;10028;48.822;11.854;2023-04-26T13:22:54;1.90;;;1.90;;
19741;SDS011;10028;48.822;11.854;2023-04-26T13:25:21;1.77;;;1.77;;
19741;SDS011;10028;48.822;11.854;2023-04-26T13:27:48;1.90;;;1.90;;
19741;SDS011;10028;48.822;11.854;2023-04-26T13:30:18;2.10;;;2.10;;
19741;SDS011;10028;48.822;11.854;2023-04-26T13:32:46;1.70;;;1.70;;
19741;SDS011;10028;48.822;11.854;2023-04-26T13:35:14;2.40;;;2.30;;
19741;SDS011;10028;48.822;11.854;2023-04-26T13:37:42;1.93;;;1.93;;
19741;SDS011;10028;48.822;11.854;2023-04-26T13:40:09;1.77;;;1.77;;
19741;SDS011;10028;48.822;11.854;2023-04-26T13:42:37;3.50;;;3.30;;
19741;SDS011;10028;48.822;11.854;2023-04-26T13:45:04;1.60;;;1.60;;
19741;SDS011;10028;48.822;11.854;2023-04-26T13:47:34;1.50;;;1.50;;
19741;SDS011;10028;48.822;11.854;2023-04-26T13:50:02;1.90;;;1.90;;
19741;SDS011;10028;48.822;11.854;2023-04-26T13:52:29;1.93;;;1.93;;
19741;SDS011;10028;48.822;11.854;2023-04-26T13:54:56;1.70;;;1.70;;
19741;SDS011;10028;48.822;11.854;2023-04-26T13:57:24;2.47;;;2.37;;
19741;SDS011;10028;48.822;11.854;2023-04-26T13:59:51;1.63;;;1.63;;
19741;SDS011;10028;48.822;11.854;2023-04-26T14:02:18;1.70;;;1.70;;
19741;SDS011;10028;48.822;11.854;2023-04-26T14:04:46;1.70;;;1.70;;
19741;SDS011;10028;48.822;11.854;2023-04-26T14:07:13;1.60;;;1.60;;
19741;SDS011;10028;48.822;11.854;2023-04-26T14:09:41;2.13;;;2.03;;
19741;SDS011;10028;48.822;11.854;2023-04-26T14:12:08;5.50;;;2.13;;
19741;SDS011;10028;48.822;11.854;2023-04-26T14:14:35;1.63;;;1.63;;
19741;SDS011;10028;48.822;11.854;2023-04-26T14:17:02;1.80;;;1.80;;
19741;SDS011;10028;48.822;11.854;2023-04-26T14:19:30;1.80;;;1.80;;
19741;SDS011;10028;48.822;11.854;2023-04-26T14:21:57;1.90;;;1.90;;
19741;SDS011;10028;48.822;11.854;2023-04-26T14:24:24;5.47;;;5.00;;
19741;SDS011;10028;48.822;11.854;2023-04-26T14:26:51;1.70;;;1.70;;
19741;SDS011;10028;48.822;11.854;2023-04-26T14:29:19;1.80;;;1.80;;
19741;SDS011;10028;48.822;11.854;2023-04-26T14:31:46;1.87;;;1.87;;
19741;SDS011;10028;48.822;11.854;2023-04-26T14:34:13;1.63;;;1.63;;
19741;SDS011;10028;48.822;11.854;2023-04-26T14:36:40;1.50;;;1.50;;
19741;SDS011;10028;48.822;11.854;2023-04-26T14:39:08;1.77;;;1.77;;
19741;SDS011;10028;48.822;11.854;2023-04-26T14:41:35;1.90;;;1.90;;
19741;SDS011;10028;48.822;11.854;2023-04-26T14:44:02;1.60;;;1.60;;
19741;SDS011;10028;48.822;11.854;2023-04-26T14:46:30;1.83;;;1.83;;
19741;SDS011;10028;48.822;11.854;2023-04-26T14:48:57;1.60;;;1.60;;
19741;SDS011;10028;48.822;11.854;2023-04-26T14:51:24;1.70;;;1.70;;
19741;SDS011;10028;48.822;11.854;2023-04-26T14:53:52;1.70;;;1.70;;
19741;SDS011;10028;48.822;11.854;2023-04-26T14:56:19;1.87;;;1.87;;
19741;SDS011;10028;48.822;11.854;2023-04-26T14:58:47;1.80;;;1.80;;
19741;SDS011;10028;48.822;11.854;2023-04-26T15:01:14;2.87;;;2.77;;
19741;SDS011;10028;48.822;11.854;2023-04-26T15:03:41;1.80;;;1.80;;
19741;SDS011;10028;48.822;11.854;2023-04-26T15:06:09;1.80;;;1.80;;
19741;SDS011;10028;48.822;11.854;2023-04-26T15:08:36;1.93;;;1.93;;